createdAt,value
2022-11-10T00:04:25.539Z,82.00
2022-11-10T00:09:25.448Z,82.00
2022-11-10T00:14:25.376Z,82.00
2022-11-10T00:19:25.320Z,83.00
2022-11-10T00:24:25.269Z,83.00
2022-11-10T00:29:25.221Z,84.00
2022-11-10T00:34:25.139Z,84.00
2022-11-10T00:39:25.069Z,85.00
2022-11-10T00:44:25.012Z,86.00
2022-11-10T00:49:24.948Z,88.00
2022-11-10T00:54:24.904Z,85.00
2022-11-10T00:59:24.820Z,85.00
2022-11-10T01:04:24.770Z,87.00
2022-11-10T01:09:24.703Z,86.00
2022-11-10T01:14:24.632Z,85.00
2022-11-10T01:19:24.604Z,83.00
2022-11-10T01:24:24.520Z,83.00
2022-11-10T01:29:24.453Z,81.00
2022-11-10T01:34:24.392Z,81.00
2022-11-10T01:39:24.338Z,81.00
2022-11-10T01:44:24.284Z,83.00
2022-11-10T01:49:24.202Z,81.00
2022-11-10T01:54:24.135Z,77.00
2022-11-10T01:59:24.084Z,77.00
2022-11-10T02:04:24.024Z,79.00
2022-11-10T02:09:23.956Z,80.00
2022-11-10T02:14:23.914Z,80.00
2022-11-10T02:19:23.831Z,81.00
2022-11-10T02:24:23.775Z,80.00
2022-11-10T02:29:23.723Z,77.00
2022-11-10T02:34:23.656Z,77.00
2022-11-10T02:39:23.586Z,78.00
2022-11-10T02:44:23.531Z,81.00
2022-11-10T02:49:23.467Z,81.00
2022-11-10T02:54:23.418Z,79.00
2022-11-10T02:59:23.346Z,76.00
2022-11-10T03:04:23.278Z,75.00
2022-11-10T03:09:23.228Z,75.00
2022-11-10T03:14:23.162Z,74.00
2022-11-10T03:19:23.098Z,75.00
2022-11-10T03:24:23.038Z,76.00
2022-11-10T03:29:22.979Z,75.00
2022-11-10T03:34:22.950Z,72.00
2022-11-10T03:39:22.851Z,71.00
2022-11-10T03:44:22.789Z,73.00
2022-11-10T03:49:22.712Z,74.00
2022-11-10T03:54:22.662Z,76.00
2022-11-10T03:59:22.581Z,74.00
2022-11-10T04:04:22.539Z,75.00
2022-11-10T04:09:22.472Z,75.00
2022-11-10T04:14:22.434Z,75.00
2022-11-10T04:19:22.349Z,75.00
2022-11-10T04:24:22.291Z,76.00
2022-11-10T04:29:22.224Z,78.00
2022-11-10T04:34:22.176Z,76.00
2022-11-10T04:39:22.083Z,75.00
2022-11-10T04:44:22.060Z,74.00
2022-11-10T04:49:21.983Z,74.00
2022-11-10T04:54:21.911Z,75.00
2022-11-10T04:59:21.846Z,76.00
2022-11-10T05:04:21.795Z,75.00
2022-11-10T05:09:21.749Z,76.00
2022-11-10T05:14:21.667Z,75.00
2022-11-10T05:19:21.633Z,75.00
2022-11-10T05:24:21.542Z,75.00
2022-11-10T05:29:21.480Z,75.00
2022-11-10T05:34:21.446Z,76.00
2022-11-10T05:39:21.352Z,76.00
2022-11-10T05:44:21.287Z,77.00
2022-11-10T05:49:21.229Z,75.00
2022-11-10T05:54:21.160Z,74.00
2022-11-10T05:59:21.128Z,73.00
2022-11-10T06:04:21.059Z,72.00
2022-11-10T06:09:20.997Z,71.00
2022-11-10T06:14:20.902Z,70.00
2022-11-10T06:19:20.861Z,71.00
2022-11-10T06:24:20.791Z,71.00
2022-11-10T06:29:26.459Z,69.00
2022-11-10T06:34:21.669Z,68.00
2022-11-10T06:39:20.612Z,68.00
2022-11-10T06:44:20.540Z,70.00
2022-11-10T06:49:20.473Z,70.00
2022-11-10T06:54:20.415Z,72.00
2022-11-10T06:59:20.382Z,73.00
2022-11-10T07:04:20.958Z,73.00
2022-11-10T07:09:20.235Z,72.00
2022-11-10T07:14:20.167Z,72.00
2022-11-10T07:19:20.116Z,72.00
2022-11-10T07:24:20.043Z,71.00
2022-11-10T07:29:19.960Z,73.00
2022-11-10T07:34:19.938Z,73.00
2022-11-10T07:39:19.849Z,74.00
2022-11-10T07:44:19.773Z,74.00
2022-11-10T07:49:19.703Z,73.00
2022-11-10T07:54:19.629Z,73.00
2022-11-10T07:59:19.596Z,72.00
2022-11-10T08:04:19.513Z,72.00
2022-11-10T08:09:19.447Z,72.00
2022-11-10T08:14:19.372Z,74.00
2022-11-10T08:19:19.326Z,75.00
2022-11-10T08:24:19.244Z,75.00
2022-11-10T08:29:19.198Z,75.00
2022-11-10T08:34:19.127Z,74.00
2022-11-10T08:39:37.618Z,77.00
2022-11-10T08:44:20.952Z,77.00
2022-11-10T08:49:18.954Z,77.00
2022-11-10T08:54:18.879Z,76.00
2022-11-10T08:59:18.817Z,76.00
2022-11-10T09:04:18.897Z,76.00
2022-11-10T09:09:18.717Z,73.00
2022-11-10T09:14:18.630Z,72.00
2022-11-10T09:19:20.051Z,71.00
2022-11-10T09:24:18.519Z,71.00
2022-11-10T09:29:18.442Z,70.00
2022-11-10T09:34:18.378Z,70.00
2022-11-10T09:39:18.322Z,71.00
2022-11-10T09:44:18.275Z,70.00
2022-11-10T09:49:18.202Z,71.00
2022-11-10T09:54:18.122Z,71.00
2022-11-10T09:59:18.082Z,71.00
2022-11-10T10:04:18.022Z,72.00
2022-11-10T10:09:17.948Z,73.00
2022-11-10T10:14:17.887Z,72.00
2022-11-10T10:19:17.832Z,71.00
2022-11-10T10:24:21.808Z,71.00
2022-11-10T10:29:17.737Z,70.00
2022-11-10T10:34:17.712Z,71.00
2022-11-10T10:39:17.621Z,71.00
2022-11-10T10:44:17.548Z,71.00
2022-11-10T10:49:32.714Z,71.00
2022-11-10T10:54:18.439Z,70.00
2022-11-10T10:59:17.328Z,70.00
2022-11-10T11:04:17.259Z,71.00
2022-11-10T11:09:17.203Z,71.00
2022-11-10T11:14:17.132Z,72.00
2022-11-10T11:19:17.081Z,72.00
2022-11-10T11:24:17.019Z,74.00
2022-11-10T11:29:16.968Z,74.00
2022-11-10T11:34:16.891Z,75.00
2022-11-10T11:39:16.839Z,74.00
2022-11-10T11:44:16.744Z,73.00
2022-11-10T11:49:16.691Z,72.00
2022-11-10T11:54:16.623Z,72.00
2022-11-10T11:59:16.564Z,73.00
2022-11-10T12:04:16.504Z,74.00
2022-11-10T12:09:16.450Z,73.00
2022-11-10T12:14:16.375Z,73.00
2022-11-10T12:19:16.319Z,74.00
2022-11-10T12:24:16.251Z,73.00
2022-11-10T12:29:16.194Z,74.00
2022-11-10T12:34:16.134Z,74.00
2022-11-10T12:39:16.066Z,75.00
2022-11-10T12:44:16.007Z,75.00
2022-11-10T12:49:15.949Z,76.00
2022-11-10T12:54:16.965Z,75.00
2022-11-10T12:59:15.838Z,75.00
2022-11-10T13:04:15.766Z,74.00
2022-11-10T13:09:15.719Z,72.00
2022-11-10T13:14:15.639Z,73.00
2022-11-10T13:19:15.589Z,74.00
2022-11-10T13:24:15.530Z,74.00
2022-11-10T13:29:15.472Z,73.00
2022-11-10T13:34:15.402Z,73.00
2022-11-10T13:39:15.344Z,71.00
2022-11-10T13:44:15.272Z,70.00
2022-11-10T13:49:15.862Z,69.00
2022-11-10T13:54:15.144Z,70.00
2022-11-10T13:59:15.109Z,71.00
2022-11-10T14:04:15.057Z,71.00
2022-11-10T14:09:14.985Z,71.00
2022-11-10T14:14:14.924Z,72.00
2022-11-10T14:19:14.848Z,73.00
2022-11-10T14:24:14.767Z,73.00
2022-11-10T14:29:14.718Z,75.00
2022-11-10T14:34:14.648Z,75.00
2022-11-10T14:39:14.592Z,75.00
2022-11-10T14:44:14.520Z,74.00
2022-11-10T14:49:14.504Z,75.00
2022-11-10T14:54:14.408Z,77.00
2022-11-10T14:59:14.352Z,78.00
2022-11-10T15:04:14.283Z,76.00
2022-11-10T15:09:15.045Z,76.00
2022-11-10T15:14:14.173Z,75.00
2022-11-10T15:19:14.104Z,75.00
2022-11-10T15:24:14.049Z,75.00
2022-11-10T15:29:14.007Z,75.00
2022-11-10T15:34:13.926Z,74.00
2022-11-10T15:39:13.917Z,74.00
2022-11-10T15:44:13.837Z,71.00
2022-11-10T15:49:13.762Z,70.00
2022-11-10T15:54:13.677Z,69.00
2022-11-10T15:59:13.612Z,69.00
2022-11-10T16:04:13.554Z,70.00
2022-11-10T16:09:13.498Z,69.00
2022-11-10T16:14:13.440Z,70.00
2022-11-10T16:19:13.360Z,69.00
2022-11-10T16:24:13.322Z,70.00
2022-11-10T16:29:13.260Z,70.00
2022-11-10T16:34:13.219Z,72.00
2022-11-10T16:39:13.137Z,71.00
2022-11-10T16:44:13.053Z,73.00
2022-11-10T16:49:12.994Z,72.00
2022-11-10T16:54:12.941Z,71.00
2022-11-10T16:59:12.878Z,71.00
2022-11-10T17:04:12.825Z,72.00
2022-11-10T17:09:12.745Z,72.00
2022-11-10T17:14:12.678Z,72.00
2022-11-10T17:19:12.624Z,71.00
2022-11-10T17:24:12.553Z,69.00
2022-11-10T17:29:12.490Z,70.00
2022-11-10T17:34:12.427Z,70.00
2022-11-10T17:39:12.386Z,70.00
2022-11-10T17:44:12.312Z,69.00
2022-11-10T17:49:12.263Z,69.00
2022-11-10T17:54:12.201Z,68.00
2022-11-10T17:59:12.120Z,69.00
2022-11-10T18:04:12.055Z,72.00
2022-11-10T18:09:11.998Z,74.00
2022-11-10T18:14:11.927Z,75.00
2022-11-10T18:19:11.898Z,75.00
2022-11-10T18:24:11.811Z,74.00
2022-11-10T18:29:11.751Z,74.00
2022-11-10T18:34:11.689Z,75.00
2022-11-10T18:39:11.630Z,75.00
2022-11-10T18:44:11.559Z,75.00
2022-11-10T18:49:11.498Z,74.00
2022-11-10T18:54:11.426Z,73.00
2022-11-10T18:59:11.359Z,71.00
2022-11-10T19:04:11.279Z,71.00
2022-11-10T19:09:11.231Z,71.00
2022-11-10T19:14:11.181Z,73.00
2022-11-10T19:19:11.089Z,73.00
2022-11-10T19:24:11.001Z,72.00
2022-11-10T19:29:10.960Z,70.00
2022-11-10T19:34:10.888Z,69.00
2022-11-10T19:39:10.820Z,69.00
2022-11-10T19:44:10.774Z,68.00
2022-11-10T19:49:10.680Z,68.00
2022-11-10T19:54:10.634Z,67.00
2022-11-10T19:59:10.540Z,67.00
2022-11-10T20:04:10.470Z,68.00
2022-11-10T20:09:10.403Z,69.00
2022-11-10T20:14:10.336Z,70.00
2022-11-10T20:19:10.282Z,71.00
2022-11-10T20:24:10.202Z,74.00
2022-11-10T20:29:10.131Z,73.00
2022-11-10T20:34:10.083Z,73.00
2022-11-10T20:39:10.033Z,73.00
2022-11-10T20:44:09.953Z,74.00
2022-11-10T20:49:09.907Z,72.00
2022-11-10T20:54:09.860Z,70.00
2022-11-10T20:59:09.793Z,68.00
2022-11-10T21:04:09.720Z,67.00
2022-11-10T21:09:09.653Z,69.00
2022-11-10T21:14:09.585Z,69.00
2022-11-10T21:19:09.559Z,69.00
2022-11-10T21:24:09.537Z,69.00
2022-11-10T21:29:09.402Z,67.00
2022-11-10T21:34:09.344Z,67.00
2022-11-10T21:39:09.312Z,69.00
2022-11-10T21:44:09.228Z,72.00
2022-11-10T21:49:09.187Z,72.00
2022-11-10T21:54:09.080Z,72.00
2022-11-10T21:59:09.044Z,71.00
2022-11-10T22:04:08.970Z,70.00
2022-11-10T22:09:08.952Z,70.00
2022-11-10T22:14:08.840Z,71.00
2022-11-10T22:19:08.811Z,71.00
2022-11-10T22:24:08.722Z,73.00
2022-11-10T22:29:08.679Z,72.00
2022-11-10T22:34:08.652Z,71.00
2022-11-10T22:39:08.577Z,72.00
2022-11-10T22:44:08.511Z,73.00
2022-11-10T22:49:08.463Z,74.00
2022-11-10T22:54:08.407Z,74.00
2022-11-10T22:59:08.332Z,73.00
2022-11-10T23:04:08.292Z,73.00
2022-11-10T23:09:08.229Z,74.00
2022-11-10T23:14:08.171Z,71.00
2022-11-10T23:19:08.131Z,72.00
2022-11-10T23:24:08.068Z,72.00
2022-11-10T23:29:08.013Z,73.00
2022-11-10T23:34:07.951Z,74.00
2022-11-10T23:39:07.903Z,73.00
2022-11-10T23:44:07.850Z,72.00
2022-11-10T23:49:07.801Z,75.00
2022-11-10T23:54:07.758Z,75.00
2022-11-10T23:59:07.700Z,77.00
